createdAt,value
2015-07-15T00:00:06.587Z,74531
2015-07-15T00:00:18.931Z,74530
2015-07-15T00:00:31.290Z,74536
2015-07-15T00:00:43.634Z,74541
2015-07-15T00:00:55.962Z,74521
2015-07-15T00:01:08.313Z,74507
2015-07-15T00:01:20.656Z,74502
2015-07-15T00:01:33.016Z,74510
2015-07-15T00:01:45.360Z,74524
2015-07-15T00:01:57.703Z,74523
2015-07-15T00:02:10.071Z,74528
2015-07-15T00:02:22.430Z,74525
2015-07-15T00:02:34.805Z,74529
2015-07-15T00:02:47.180Z,74522
2015-07-15T00:02:59.555Z,74520
2015-07-15T00:03:11.921Z,74520
2015-07-15T00:03:24.296Z,74525
2015-07-15T00:03:36.671Z,74524
2015-07-15T00:03:49.000Z,74529
2015-07-15T00:04:01.343Z,74528
2015-07-15T00:04:13.693Z,74526
2015-07-15T00:04:26.021Z,74526
2015-07-15T00:04:38.381Z,74529
2015-07-15T00:04:50.709Z,74534
2015-07-15T00:05:03.322Z,74532
2015-07-15T00:05:15.650Z,74529
2015-07-15T00:05:28.010Z,74518
2015-07-15T00:05:40.353Z,74519
2015-07-15T00:05:52.681Z,74528
2015-07-15T00:06:05.013Z,74526
2015-07-15T00:06:17.356Z,74520
2015-07-15T00:06:29.684Z,74525
2015-07-15T00:06:42.028Z,74521
2015-07-15T00:06:54.372Z,74520
2015-07-15T00:07:06.736Z,74518
2015-07-15T00:07:19.096Z,74516
2015-07-15T00:07:31.439Z,74524
2015-07-15T00:07:43.783Z,74515
2015-07-15T00:07:56.174Z,74513
2015-07-15T00:08:08.537Z,74516
2015-07-15T00:08:20.740Z,74509
2015-07-15T00:08:33.100Z,74517
2015-07-15T00:08:45.475Z,74514
2015-07-15T00:08:57.834Z,74512
2015-07-15T00:09:10.180Z,74506
2015-07-15T00:09:22.524Z,74509
2015-07-15T00:09:34.852Z,74514
2015-07-15T00:09:47.195Z,74521
2015-07-15T00:09:59.539Z,74520
2015-07-15T00:10:11.902Z,74517
2015-07-15T00:10:24.230Z,74514
2015-07-15T00:10:36.573Z,74512
2015-07-15T00:10:48.902Z,74513
2015-07-15T00:11:01.245Z,74520
2015-07-15T00:11:13.591Z,74518
2015-07-15T00:11:25.919Z,74513
2015-07-15T00:11:38.247Z,74515
2015-07-15T00:11:50.607Z,74513
2015-07-15T00:12:02.935Z,74519
2015-07-15T00:12:15.265Z,74517
2015-07-15T00:12:27.593Z,74519
2015-07-15T00:12:39.952Z,74522
2015-07-15T00:12:52.296Z,74514
2015-07-15T00:13:04.656Z,74514
2015-07-15T00:13:17.018Z,74515
2015-07-15T00:13:29.377Z,74520
2015-07-15T00:13:41.752Z,74522
2015-07-15T00:13:54.112Z,74516
2015-07-15T00:14:06.487Z,74515
2015-07-15T00:14:18.879Z,74511
2015-07-15T00:14:31.254Z,74512
2015-07-15T00:14:43.614Z,74509
2015-07-15T00:14:55.957Z,74509
2015-07-15T00:15:08.286Z,74510
2015-07-15T00:15:20.631Z,74514
2015-07-15T00:15:32.975Z,74516
2015-07-15T00:15:45.569Z,74517
2015-07-15T00:15:57.913Z,74515
2015-07-15T00:16:10.256Z,74521
2015-07-15T00:16:22.603Z,74526
2015-07-15T00:16:34.962Z,74526
2015-07-15T00:16:47.322Z,74514
2015-07-15T00:16:59.666Z,74520
2015-07-15T00:17:12.009Z,74513
2015-07-15T00:17:24.386Z,74515
2015-07-15T00:17:36.730Z,74507
2015-07-15T00:17:49.074Z,74507
2015-07-15T00:18:01.418Z,74512
2015-07-15T00:18:13.746Z,74512
2015-07-15T00:18:26.124Z,74515
2015-07-15T00:18:38.467Z,74516
2015-07-15T00:18:50.811Z,74513
2015-07-15T00:19:03.171Z,74511
2015-07-15T00:19:15.671Z,74510
2015-07-15T00:19:28.157Z,74510
2015-07-15T00:19:40.594Z,74510
2015-07-15T00:19:52.969Z,74517
2015-07-15T00:20:06.298Z,74513
2015-07-15T00:20:18.673Z,74502
2015-07-15T00:20:31.034Z,74505
2015-07-15T00:20:43.362Z,74504
2015-07-15T00:20:55.690Z,74513
2015-07-15T00:21:08.050Z,74507
2015-07-15T00:21:20.393Z,74504
2015-07-15T00:21:32.755Z,74514
2015-07-15T00:21:45.223Z,74516
2015-07-15T00:21:57.958Z,74512
2015-07-15T00:22:10.536Z,74519
2015-07-15T00:22:22.880Z,74520
2015-07-15T00:22:35.225Z,74521
2015-07-15T00:22:48.054Z,74518
2015-07-15T00:23:00.382Z,74518
2015-07-15T00:23:12.725Z,74511
2015-07-15T00:23:25.085Z,74513
2015-07-15T00:23:37.446Z,74506
2015-07-15T00:23:49.790Z,74503
2015-07-15T00:24:02.337Z,74507
2015-07-15T00:24:14.899Z,74512
2015-07-15T00:24:27.368Z,74517
2015-07-15T00:24:39.807Z,74520
2015-07-15T00:24:52.700Z,74517
2015-07-15T00:25:05.138Z,74514
2015-07-15T00:25:17.513Z,74509
2015-07-15T00:25:29.919Z,74501
2015-07-15T00:25:43.624Z,74502
2015-07-15T00:25:56.417Z,74507
2015-07-15T00:26:09.183Z,74506
2015-07-15T00:26:22.526Z,74513
2015-07-15T00:26:34.919Z,74507
2015-07-15T00:26:48.013Z,74510
2015-07-15T00:27:01.169Z,74508
2015-07-15T00:27:13.950Z,74504
2015-07-15T00:27:26.294Z,74507
2015-07-15T00:27:38.656Z,74506
2015-07-15T00:27:51.031Z,74515
2015-07-15T00:28:03.578Z,74516
2015-07-15T00:28:16.188Z,74518
2015-07-15T00:28:28.578Z,74516
2015-07-15T00:28:40.939Z,74515
2015-07-15T00:28:53.298Z,74513
2015-07-15T00:29:05.642Z,74515
2015-07-15T00:29:18.017Z,74519
2015-07-15T00:29:30.376Z,74516
2015-07-15T00:29:42.738Z,74518
2015-07-15T00:29:55.206Z,74512
2015-07-15T00:30:07.738Z,74501
2015-07-15T00:30:20.519Z,74499
2015-07-15T00:30:32.988Z,74493
2015-07-15T00:30:45.036Z,74497
2015-07-15T00:30:57.443Z,74499
2015-07-15T00:31:09.833Z,74507
2015-07-15T00:31:22.255Z,74510
2015-07-15T00:31:34.740Z,74507
2015-07-15T00:31:47.132Z,74503
2015-07-15T00:31:59.570Z,74503
2015-07-15T00:32:11.929Z,74499
2015-07-15T00:32:24.288Z,74493
2015-07-15T00:32:36.632Z,74500
2015-07-15T00:32:48.978Z,74503
2015-07-15T00:33:01.181Z,74509
2015-07-15T00:33:13.556Z,74506
2015-07-15T00:33:25.900Z,74514
2015-07-15T00:33:38.244Z,74512
2015-07-15T00:33:50.624Z,74511
2015-07-15T00:34:02.968Z,74505
2015-07-15T00:34:15.328Z,74501
2015-07-15T00:34:27.687Z,74499
2015-07-15T00:34:40.046Z,74498
2015-07-15T00:34:51.689Z,74500
2015-07-15T00:35:04.033Z,74507
2015-07-15T00:35:16.376Z,74504
2015-07-15T00:35:28.751Z,74495
2015-07-15T00:35:41.126Z,74492
2015-07-15T00:35:54.441Z,74497
2015-07-15T00:36:06.082Z,74499
2015-07-15T00:36:18.472Z,74497
2015-07-15T00:36:30.878Z,74502
2015-07-15T00:36:43.287Z,74498
2015-07-15T00:36:55.677Z,74505
2015-07-15T00:37:08.084Z,74510
2015-07-15T00:37:20.474Z,74503
2015-07-15T00:37:32.834Z,74504
2015-07-15T00:37:45.195Z,74503
2015-07-15T00:37:57.539Z,74498
2015-07-15T00:38:09.898Z,74501
2015-07-15T00:38:22.226Z,74500
2015-07-15T00:38:34.586Z,74499
2015-07-15T00:38:46.947Z,74499
2015-07-15T00:38:59.291Z,74503
2015-07-15T00:39:11.666Z,74499
2015-07-15T00:39:24.025Z,74499
2015-07-15T00:39:36.353Z,74507
2015-07-15T00:39:48.699Z,74503
2015-07-15T00:40:01.058Z,74498
2015-07-15T00:40:13.402Z,74504
2015-07-15T00:40:25.730Z,74509
2015-07-15T00:40:38.090Z,74513
2015-07-15T00:40:50.450Z,74510
2015-07-15T00:41:02.778Z,74508
2015-07-15T00:41:15.137Z,74499
2015-07-15T00:41:27.481Z,74500
2015-07-15T00:41:39.825Z,74502
2015-07-15T00:41:52.234Z,74508
2015-07-15T00:42:04.625Z,74502
2015-07-15T00:42:17.000Z,74505
2015-07-15T00:42:29.375Z,74498
2015-07-15T00:42:41.797Z,74494
2015-07-15T00:42:54.158Z,74499
2015-07-15T00:43:06.549Z,74500
2015-07-15T00:43:18.892Z,74508
2015-07-15T00:43:31.221Z,74498
2015-07-15T00:43:43.564Z,74497
2015-07-15T00:43:55.894Z,74495
2015-07-15T00:44:08.254Z,74492
2015-07-15T00:44:20.613Z,74495
2015-07-15T00:44:32.254Z,74498
2015-07-15T00:44:44.598Z,74503
2015-07-15T00:44:56.974Z,74497
2015-07-15T00:45:09.317Z,74496
2015-07-15T00:45:21.661Z,74495
2015-07-15T00:45:34.005Z,74501
2015-07-15T00:45:46.380Z,74503
2015-07-15T00:45:58.727Z,74504
2015-07-15T00:46:11.086Z,74507
2015-07-15T00:46:23.430Z,74496
2015-07-15T00:46:35.805Z,74493
2015-07-15T00:46:48.164Z,74497
2015-07-15T00:47:00.524Z,74499
2015-07-15T00:47:12.884Z,74493
2015-07-15T00:47:25.274Z,74498
2015-07-15T00:47:37.649Z,74492
2015-07-15T00:47:50.024Z,74496
2015-07-15T00:48:02.401Z,74496
2015-07-15T00:48:14.776Z,74499
2015-07-15T00:48:26.448Z,74500
2015-07-15T00:48:38.839Z,74501
2015-07-15T00:48:51.183Z,74502
2015-07-15T00:49:03.529Z,74499
2015-07-15T00:49:15.873Z,74498
2015-07-15T00:49:28.217Z,74503
2015-07-15T00:49:40.576Z,74500
2015-07-15T00:49:52.920Z,74496
2015-07-15T00:50:04.563Z,74505
2015-07-15T00:50:16.906Z,74510
2015-07-15T00:50:29.266Z,74504
2015-07-15T00:50:41.641Z,74493
2015-07-15T00:50:53.969Z,74491
2015-07-15T00:51:06.315Z,74497
2015-07-15T00:51:18.658Z,74494
2015-07-15T00:51:31.002Z,74495
2015-07-15T00:51:43.346Z,74494
2015-07-15T00:51:55.690Z,74496
2015-07-15T00:52:08.035Z,74503
2015-07-15T00:52:20.410Z,74499
2015-07-15T00:52:32.770Z,74494
2015-07-15T00:52:45.114Z,74500
2015-07-15T00:52:57.490Z,74496
2015-07-15T00:53:09.880Z,74509
2015-07-15T00:53:22.271Z,74503
2015-07-15T00:53:34.646Z,74503
2015-07-15T00:53:47.036Z,74500
2015-07-15T00:53:59.429Z,74498
2015-07-15T00:54:11.835Z,74510
2015-07-15T00:54:24.257Z,74502
2015-07-15T00:54:36.601Z,74502
2015-07-15T00:54:48.945Z,74497
2015-07-15T00:55:01.290Z,74498
2015-07-15T00:55:13.634Z,74500
2015-07-15T00:55:25.978Z,74508
2015-07-15T00:55:38.337Z,74511
2015-07-15T00:55:50.681Z,74502
2015-07-15T00:56:03.058Z,74493
2015-07-15T00:56:15.417Z,74493
2015-07-15T00:56:27.761Z,74491
2015-07-15T00:56:40.121Z,74487
2015-07-15T00:56:52.454Z,74495
2015-07-15T00:57:04.815Z,74497
2015-07-15T00:57:17.159Z,74501
2015-07-15T00:57:29.487Z,74496
2015-07-15T00:57:41.831Z,74504
2015-07-15T00:57:54.190Z,74502
2015-07-15T00:58:06.551Z,74500
2015-07-15T00:58:18.902Z,74504
2015-07-15T00:58:31.261Z,74495
2015-07-15T00:58:43.636Z,74495
2015-07-15T00:58:55.980Z,74502
2015-07-15T00:59:08.357Z,74505
2015-07-15T00:59:20.013Z,74501
2015-07-15T00:59:32.388Z,74497
2015-07-15T00:59:44.763Z,74492
2015-07-15T00:59:57.123Z,74497
2015-07-15T01:00:09.468Z,74508
2015-07-15T01:00:21.812Z,74504
2015-07-15T01:00:34.156Z,74503
2015-07-15T01:00:46.500Z,74499
2015-07-15T01:00:58.843Z,74498
2015-07-15T01:01:11.174Z,74502
2015-07-15T01:01:23.512Z,74498
2015-07-15T01:01:35.856Z,74498
2015-07-15T01:01:47.497Z,74496
2015-07-15T01:01:59.825Z,74502
2015-07-15T01:02:12.171Z,74497
2015-07-15T01:02:24.514Z,74489
2015-07-15T01:02:36.874Z,74499
2015-07-15T01:02:48.499Z,74497
2015-07-15T01:03:00.843Z,74501
2015-07-15T01:03:13.188Z,74500
2015-07-15T01:03:24.798Z,74500
2015-07-15T01:03:37.157Z,74503
2015-07-15T01:03:49.516Z,74511
2015-07-15T01:04:01.891Z,74510
2015-07-15T01:04:14.284Z,74502
2015-07-15T01:04:26.659Z,74506
2015-07-15T01:04:39.034Z,74506
2015-07-15T01:04:51.425Z,74500
2015-07-15T01:05:03.800Z,74500
2015-07-15T01:05:16.192Z,74501
2015-07-15T01:05:28.567Z,74491
2015-07-15T01:05:40.911Z,74493
2015-07-15T01:05:53.270Z,74497
2015-07-15T01:06:05.599Z,74486
2015-07-15T01:06:17.959Z,74481
2015-07-15T01:06:30.303Z,74491
2015-07-15T01:06:42.662Z,74499
2015-07-15T01:06:56.350Z,74502
2015-07-15T01:07:08.725Z,74502
2015-07-15T01:07:21.070Z,74497
2015-07-15T01:07:33.414Z,74496
2015-07-15T01:07:45.758Z,74503
2015-07-15T01:07:58.086Z,74497
2015-07-15T01:08:10.430Z,74502
2015-07-15T01:08:22.760Z,74500
2015-07-15T01:08:35.104Z,74508
2015-07-15T01:08:47.479Z,74499
2015-07-15T01:08:59.807Z,74502
2015-07-15T01:09:12.166Z,74492
2015-07-15T01:09:24.518Z,74490
2015-07-15T01:09:36.846Z,74498
2015-07-15T01:09:49.205Z,74501
2015-07-15T01:10:02.033Z,74500
2015-07-15T01:10:14.408Z,74499
2015-07-15T01:10:26.831Z,74493
2015-07-15T01:10:39.269Z,74493
2015-07-15T01:10:51.659Z,74487
2015-07-15T01:11:04.050Z,74486
2015-07-15T01:11:16.433Z,74493
2015-07-15T01:11:28.810Z,74494
2015-07-15T01:11:41.138Z,74497
2015-07-15T01:11:53.497Z,74489
2015-07-15T01:12:05.825Z,74485
2015-07-15T01:12:18.169Z,74484
2015-07-15T01:12:30.515Z,74483
2015-07-15T01:12:42.859Z,74488
2015-07-15T01:12:55.202Z,74491
2015-07-15T01:13:07.546Z,74481
2015-07-15T01:13:19.874Z,74479
2015-07-15T01:13:32.220Z,74490
2015-07-15T01:13:44.564Z,74487
2015-07-15T01:13:56.892Z,74488
2015-07-15T01:14:09.220Z,74492
2015-07-15T01:14:21.564Z,74491
2015-07-15T01:14:33.910Z,74491
2015-07-15T01:14:46.254Z,74491
2015-07-15T01:14:58.582Z,74499
2015-07-15T01:15:10.926Z,74495
2015-07-15T01:15:23.270Z,74497
2015-07-15T01:15:35.615Z,74502
2015-07-15T01:15:47.990Z,74500
2015-07-15T01:16:00.380Z,74506
2015-07-15T01:16:12.755Z,74509
2015-07-15T01:16:25.115Z,74504
2015-07-15T01:16:37.538Z,74500
2015-07-15T01:16:49.913Z,74505
2015-07-15T01:17:02.273Z,74506
2015-07-15T01:17:14.663Z,74501
2015-07-15T01:17:27.007Z,74496
2015-07-15T01:17:39.354Z,74496
2015-07-15T01:17:51.698Z,74492
2015-07-15T01:18:04.026Z,74495
2015-07-15T01:18:16.385Z,74497
2015-07-15T01:18:28.729Z,74500
2015-07-15T01:18:41.058Z,74491
2015-07-15T01:18:53.386Z,74490
2015-07-15T01:19:05.996Z,74495
2015-07-15T01:19:18.339Z,74497
2015-07-15T01:19:30.683Z,74498
2015-07-15T01:19:43.029Z,74500
2015-07-15T01:19:55.373Z,74498
2015-07-15T01:20:07.716Z,74497
2015-07-15T01:20:20.044Z,74493
2015-07-15T01:20:32.388Z,74494
2015-07-15T01:20:44.750Z,74490
2015-07-15T01:20:57.093Z,74490
2015-07-15T01:21:09.453Z,74498
2015-07-15T01:21:21.796Z,74501
2015-07-15T01:21:34.187Z,74503
2015-07-15T01:21:46.549Z,74501
2015-07-15T01:21:58.924Z,74495
2015-07-15T01:22:11.299Z,74499
2015-07-15T01:22:23.674Z,74491
2015-07-15T01:22:36.049Z,74496
2015-07-15T01:22:48.410Z,74495
2015-07-15T01:23:00.738Z,74492
2015-07-15T01:23:13.082Z,74477
2015-07-15T01:23:25.425Z,74484
2015-07-15T01:23:37.769Z,74482
2015-07-15T01:23:50.115Z,74490
2015-07-15T01:24:02.459Z,74491
2015-07-15T01:24:14.802Z,74497
2015-07-15T01:24:27.396Z,74496
2015-07-15T01:24:40.006Z,74499
2015-07-15T01:24:52.351Z,74497
2015-07-15T01:25:03.976Z,74493
2015-07-15T01:25:16.304Z,74497
2015-07-15T01:25:28.679Z,74489
2015-07-15T01:25:41.008Z,74492
2015-07-15T01:25:53.338Z,74496
2015-07-15T01:26:05.666Z,74499
2015-07-15T01:26:18.010Z,74498
2015-07-15T01:26:30.353Z,74494
2015-07-15T01:26:42.713Z,74494
2015-07-15T01:26:55.777Z,74500
2015-07-15T01:27:08.137Z,74505
2015-07-15T01:27:20.496Z,74512
2015-07-15T01:27:32.855Z,74508
2015-07-15T01:27:45.246Z,74507
2015-07-15T01:27:57.623Z,74509
2015-07-15T01:28:10.029Z,74507
2015-07-15T01:28:22.389Z,74506
2015-07-15T01:28:34.748Z,74497
2015-07-15T01:28:47.092Z,74497
2015-07-15T01:28:59.437Z,74496
2015-07-15T01:29:11.766Z,74493
2015-07-15T01:29:24.109Z,74489
2015-07-15T01:29:36.469Z,74485
2015-07-15T01:29:48.797Z,74487
2015-07-15T01:30:01.143Z,74480
2015-07-15T01:30:13.471Z,74486
2015-07-15T01:30:25.830Z,74490
2015-07-15T01:30:38.018Z,74498
2015-07-15T01:30:50.363Z,74497
2015-07-15T01:31:02.691Z,74498
2015-07-15T01:31:15.301Z,74500
2015-07-15T01:31:27.629Z,74503
2015-07-15T01:31:39.973Z,74496
2015-07-15T01:31:52.318Z,74494
2015-07-15T01:32:07.303Z,74490
2015-07-15T01:32:19.647Z,74492
2015-07-15T01:32:32.037Z,74489
2015-07-15T01:32:43.678Z,74499
2015-07-15T01:32:56.024Z,74504
2015-07-15T01:33:08.399Z,74502
2015-07-15T01:33:20.774Z,74493
2015-07-15T01:33:33.164Z,74494
2015-07-15T01:33:45.539Z,74491
2015-07-15T01:33:57.932Z,74498
2015-07-15T01:34:10.322Z,74492
2015-07-15T01:34:22.666Z,74500
2015-07-15T01:34:34.994Z,74500
2015-07-15T01:34:47.322Z,74497
2015-07-15T01:34:59.667Z,74490
2015-07-15T01:35:12.011Z,74492
2015-07-15T01:35:24.355Z,74486
2015-07-15T01:35:36.698Z,74495
2015-07-15T01:35:49.027Z,74500
2015-07-15T01:36:01.372Z,74504
2015-07-15T01:36:13.732Z,74499
2015-07-15T01:36:26.060Z,74495
2015-07-15T01:36:38.388Z,74499
2015-07-15T01:36:50.732Z,74505
2015-07-15T01:37:03.063Z,74504
2015-07-15T01:37:15.407Z,74506
2015-07-15T01:37:27.735Z,74491
2015-07-15T01:37:40.078Z,74492
2015-07-15T01:37:52.422Z,74493
2015-07-15T01:38:04.768Z,74498
2015-07-15T01:38:17.127Z,74511
2015-07-15T01:38:29.502Z,74509
2015-07-15T01:38:41.877Z,74510
2015-07-15T01:38:54.252Z,74509
2015-07-15T01:39:06.628Z,74499
2015-07-15T01:39:19.003Z,74493
2015-07-15T01:39:31.363Z,74490
2015-07-15T01:39:43.753Z,74488
2015-07-15T01:39:56.081Z,74491
2015-07-15T01:40:08.427Z,74484
2015-07-15T01:40:20.755Z,74489
2015-07-15T01:40:33.099Z,74490
2015-07-15T01:40:45.443Z,74495
2015-07-15T01:40:57.787Z,74487
2015-07-15T01:41:10.133Z,74494
2015-07-15T01:41:22.477Z,74492
2015-07-15T01:41:34.805Z,74498
2015-07-15T01:41:47.149Z,74493
2015-07-15T01:41:59.524Z,74497
2015-07-15T01:42:11.870Z,74490
2015-07-15T01:42:24.213Z,74494
2015-07-15T01:42:36.573Z,74499
2015-07-15T01:42:48.917Z,74498
2015-07-15T01:43:01.245Z,74497
2015-07-15T01:43:13.589Z,74495
2015-07-15T01:43:25.933Z,74500
2015-07-15T01:43:38.277Z,74497
2015-07-15T01:43:50.621Z,74498
2015-07-15T01:44:02.998Z,74491
2015-07-15T01:44:15.388Z,74497
2015-07-15T01:44:27.748Z,74495
2015-07-15T01:44:40.107Z,74491
2015-07-15T01:44:52.482Z,74488
2015-07-15T01:45:04.718Z,74491
2015-07-15T01:45:17.078Z,74494
2015-07-15T01:45:29.453Z,74504
2015-07-15T01:45:42.062Z,74502
2015-07-15T01:45:54.390Z,74500
2015-07-15T01:46:06.736Z,74506
2015-07-15T01:46:19.064Z,74510
2015-07-15T01:46:31.392Z,74492
2015-07-15T01:46:43.736Z,74491
2015-07-15T01:46:56.080Z,74487
2015-07-15T01:47:07.707Z,74488
2015-07-15T01:47:20.066Z,74491
2015-07-15T01:47:32.410Z,74490
2015-07-15T01:47:44.738Z,74492
2015-07-15T01:47:57.082Z,74493
2015-07-15T01:48:09.428Z,74495
2015-07-15T01:48:21.771Z,74492
2015-07-15T01:48:34.115Z,74492
2015-07-15T01:48:46.443Z,74487
2015-07-15T01:48:58.068Z,74488
2015-07-15T01:49:10.414Z,74481
2015-07-15T01:49:22.773Z,74487
2015-07-15T01:49:35.117Z,74491
2015-07-15T01:49:47.492Z,74488
2015-07-15T01:49:59.867Z,74486
2015-07-15T01:50:12.244Z,74491
2015-07-15T01:50:24.619Z,74491
2015-07-15T01:50:36.963Z,74498
2015-07-15T01:50:49.338Z,74501
2015-07-15T01:51:01.713Z,74499
2015-07-15T01:51:14.073Z,74498
2015-07-15T01:51:26.417Z,74491
2015-07-15T01:51:38.745Z,74494
2015-07-15T01:51:51.089Z,74496
2015-07-15T01:52:03.448Z,74499
2015-07-15T01:52:15.795Z,74495
2015-07-15T01:52:28.123Z,74502
2015-07-15T01:52:40.467Z,74502
2015-07-15T01:52:52.795Z,74498
2015-07-15T01:53:05.154Z,74496
2015-07-15T01:53:17.484Z,74498
2015-07-15T01:53:29.813Z,74499
2015-07-15T01:53:42.141Z,74501
2015-07-15T01:53:54.469Z,74494
2015-07-15T01:54:06.813Z,74489
2015-07-15T01:54:19.158Z,74496
2015-07-15T01:54:31.502Z,74493
2015-07-15T01:54:43.861Z,74495
2015-07-15T01:54:56.205Z,74493
2015-07-15T01:55:08.549Z,74493
2015-07-15T01:55:20.925Z,74490
2015-07-15T01:55:33.300Z,74492
2015-07-15T01:55:45.659Z,74496
2015-07-15T01:55:58.034Z,74493
2015-07-15T01:56:10.394Z,74497
2015-07-15T01:56:22.756Z,74497
2015-07-15T01:56:35.100Z,74497
2015-07-15T01:56:47.428Z,74500
2015-07-15T01:56:59.772Z,74501
2015-07-15T01:57:12.100Z,74498
2015-07-15T01:57:24.445Z,74497
2015-07-15T01:57:36.757Z,74499
2015-07-15T01:57:49.116Z,74492
2015-07-15T01:58:01.460Z,74492
2015-07-15T01:58:13.804Z,74486
2015-07-15T01:58:26.134Z,74489
2015-07-15T01:58:37.775Z,74492
2015-07-15T01:58:50.103Z,74499
2015-07-15T01:59:02.462Z,74500
2015-07-15T01:59:14.806Z,74498
2015-07-15T01:59:27.136Z,74498
2015-07-15T01:59:39.480Z,74491
2015-07-15T01:59:51.808Z,74493
2015-07-15T02:00:04.167Z,74496
2015-07-15T02:00:16.511Z,74490
2015-07-15T02:00:28.873Z,74485
2015-07-15T02:00:41.233Z,74488
2015-07-15T02:00:53.592Z,74487
2015-07-15T02:01:05.967Z,74486
2015-07-15T02:01:18.327Z,74482
2015-07-15T02:01:30.703Z,74480
2015-07-15T02:01:43.062Z,74485
2015-07-15T02:01:55.437Z,74493
2015-07-15T02:02:07.781Z,74497
2015-07-15T02:02:20.109Z,74498
2015-07-15T02:02:32.455Z,74501
2015-07-15T02:02:44.783Z,74501
2015-07-15T02:02:57.126Z,74497
2015-07-15T02:03:09.470Z,74497
2015-07-15T02:03:22.080Z,74497
2015-07-15T02:03:34.411Z,74495
2015-07-15T02:03:46.754Z,74495
2015-07-15T02:03:59.098Z,74494
2015-07-15T02:04:11.442Z,74495
2015-07-15T02:04:23.770Z,74490
2015-07-15T02:04:36.115Z,74490
2015-07-15T02:04:48.459Z,74492
2015-07-15T02:05:00.787Z,74498
2015-07-15T02:05:13.130Z,74493
2015-07-15T02:05:25.459Z,74493
2015-07-15T02:05:37.664Z,74494
2015-07-15T02:05:50.007Z,74498
2015-07-15T02:06:02.351Z,74494
2015-07-15T02:06:14.711Z,74497
2015-07-15T02:06:27.086Z,74493
2015-07-15T02:06:39.478Z,74493
2015-07-15T02:06:51.838Z,74493
2015-07-15T02:07:04.213Z,74494
2015-07-15T02:07:16.603Z,74497
2015-07-15T02:07:28.978Z,74505
2015-07-15T02:07:41.324Z,74504
2015-07-15T02:07:53.668Z,74505
2015-07-15T02:08:05.996Z,74495
2015-07-15T02:08:18.340Z,74489
2015-07-15T02:08:30.683Z,74486
2015-07-15T02:08:43.029Z,74490
2015-07-15T02:08:55.373Z,74485
2015-07-15T02:09:07.717Z,74489
2015-07-15T02:09:20.060Z,74489
2015-07-15T02:09:32.388Z,74491
2015-07-15T02:09:44.735Z,74487
2015-07-15T02:09:57.079Z,74488
2015-07-15T02:10:09.423Z,74486
2015-07-15T02:10:21.782Z,74495
2015-07-15T02:10:33.391Z,74498
2015-07-15T02:10:45.737Z,74501
2015-07-15T02:10:58.065Z,74493
2015-07-15T02:11:10.409Z,74483
2015-07-15T02:11:22.753Z,74482
2015-07-15T02:11:35.112Z,74494
2015-07-15T02:11:47.473Z,74490
2015-07-15T02:11:59.848Z,74490
2015-07-15T02:12:12.207Z,74487
2015-07-15T02:12:24.582Z,74483
2015-07-15T02:12:36.957Z,74483
2015-07-15T02:12:49.351Z,74482
2015-07-15T02:13:01.710Z,74486
2015-07-15T02:13:14.101Z,74493
2015-07-15T02:13:26.429Z,74497
2015-07-15T02:13:38.772Z,74493
2015-07-15T02:13:51.117Z,74494
2015-07-15T02:14:03.445Z,74492
2015-07-15T02:14:15.789Z,74492
2015-07-15T02:14:28.133Z,74495
2015-07-15T02:14:40.727Z,74501
2015-07-15T02:14:53.073Z,74496
2015-07-15T02:15:04.698Z,74498
2015-07-15T02:15:17.042Z,74502
2015-07-15T02:15:29.370Z,74493
2015-07-15T02:15:41.714Z,74491
2015-07-15T02:15:54.059Z,74490
2015-07-15T02:16:06.387Z,74488
2015-07-15T02:16:18.731Z,74493
2015-07-15T02:16:31.059Z,74491
2015-07-15T02:16:43.402Z,74489
2015-07-15T02:16:56.029Z,74496
2015-07-15T02:17:08.373Z,74499
2015-07-15T02:17:20.701Z,74500
2015-07-15T02:17:33.076Z,74501
2015-07-15T02:17:45.451Z,74498
2015-07-15T02:17:57.813Z,74500
2015-07-15T02:18:10.172Z,74503
2015-07-15T02:18:22.547Z,74498
2015-07-15T02:18:34.906Z,74495
2015-07-15T02:18:47.266Z,74494
2015-07-15T02:18:59.612Z,74490
2015-07-15T02:19:11.940Z,74489
2015-07-15T02:19:24.283Z,74495
2015-07-15T02:19:36.612Z,74491
2015-07-15T02:19:48.955Z,74493
2015-07-15T02:20:01.301Z,74491
2015-07-15T02:20:13.660Z,74494
2015-07-15T02:20:26.004Z,74491
2015-07-15T02:20:38.348Z,74484
2015-07-15T02:20:50.692Z,74482
2015-07-15T02:21:03.022Z,74489
2015-07-15T02:21:15.381Z,74490
2015-07-15T02:21:27.709Z,74490
2015-07-15T02:21:40.069Z,74493
2015-07-15T02:21:52.412Z,74496
2015-07-15T02:22:04.758Z,74496
2015-07-15T02:22:17.086Z,74500
2015-07-15T02:22:29.477Z,74490
2015-07-15T02:22:41.805Z,74485
2015-07-15T02:22:54.149Z,74478
2015-07-15T02:23:06.509Z,74481
2015-07-15T02:23:18.884Z,74488
2015-07-15T02:23:31.244Z,74487
2015-07-15T02:23:43.603Z,74486
2015-07-15T02:23:55.978Z,74488
2015-07-15T02:24:08.340Z,74489
2015-07-15T02:24:20.715Z,74488
2015-07-15T02:24:33.043Z,74485
2015-07-15T02:24:44.668Z,74481
2015-07-15T02:24:57.012Z,74483
2015-07-15T02:25:08.638Z,74487
2015-07-15T02:25:20.966Z,74483
2015-07-15T02:25:33.310Z,74484
2015-07-15T02:25:45.638Z,74488
2015-07-15T02:25:57.982Z,74486
2015-07-15T02:26:10.593Z,74481
2015-07-15T02:26:22.937Z,74479
2015-07-15T02:26:35.281Z,74477
2015-07-15T02:26:47.609Z,74485
2015-07-15T02:26:59.953Z,74493
2015-07-15T02:27:12.299Z,74490
2015-07-15T02:27:24.628Z,74489
2015-07-15T02:27:36.971Z,74492
2015-07-15T02:27:49.315Z,74494
2015-07-15T02:28:01.643Z,74494
2015-07-15T02:28:14.004Z,74492
2015-07-15T02:28:26.347Z,74491
2015-07-15T02:28:38.707Z,74495
2015-07-15T02:28:51.066Z,74498
2015-07-15T02:29:03.425Z,74503
2015-07-15T02:29:15.803Z,74499
2015-07-15T02:29:28.163Z,74491
2015-07-15T02:29:40.553Z,74495
2015-07-15T02:29:52.913Z,74500
2015-07-15T02:30:05.241Z,74497
2015-07-15T02:30:17.586Z,74496
2015-07-15T02:30:29.914Z,74495
2015-07-15T02:30:42.242Z,74494
2015-07-15T02:30:54.586Z,74490
2015-07-15T02:31:06.931Z,74487
2015-07-15T02:31:19.260Z,74484
2015-07-15T02:31:31.603Z,74480
2015-07-15T02:31:43.947Z,74479
2015-07-15T02:31:56.291Z,74484
2015-07-15T02:32:08.637Z,74488
2015-07-15T02:32:20.980Z,74492
2015-07-15T02:32:33.324Z,74492
2015-07-15T02:32:45.668Z,74487
2015-07-15T02:32:57.996Z,74483
2015-07-15T02:33:10.343Z,74484
2015-07-15T02:33:21.952Z,74483
2015-07-15T02:33:34.311Z,74491
2015-07-15T02:33:46.671Z,74494
2015-07-15T02:33:59.015Z,74491
2015-07-15T02:34:11.376Z,74492
2015-07-15T02:34:23.735Z,74490
2015-07-15T02:34:36.095Z,74488
2015-07-15T02:34:48.470Z,74488
2015-07-15T02:35:00.829Z,74489
2015-07-15T02:35:13.221Z,74492
2015-07-15T02:35:25.580Z,74494
2015-07-15T02:35:38.002Z,74499
2015-07-15T02:35:50.346Z,74495
2015-07-15T02:36:02.674Z,74497
2015-07-15T02:36:15.005Z,74493
2015-07-15T02:36:27.333Z,74493
2015-07-15T02:36:39.677Z,74496
2015-07-15T02:36:52.021Z,74489
2015-07-15T02:37:04.364Z,74489
2015-07-15T02:37:16.693Z,74489
2015-07-15T02:37:29.053Z,74496
2015-07-15T02:37:41.381Z,74498
2015-07-15T02:37:53.725Z,74497
2015-07-15T02:38:06.068Z,74493
2015-07-15T02:38:18.399Z,74490
2015-07-15T02:38:30.008Z,74490
2015-07-15T02:38:42.367Z,74490
2015-07-15T02:38:54.695Z,74496
2015-07-15T02:39:07.039Z,74494